Paradise Valley, Nevada Weather observations

Data are for 10 minute period ending at time listed.
 Day   Time   Solar   Ave.   Ave.  Ave.  Vector  Max.   Baro.   Total    
  of    of     Rad.   Air    Rel.  Wind   Wind   Wind  Press.  Precip.   
Year   Day            Temp.  Hum.  Speed  Dir.   Gust                    
2017   (PST)  Kw/m2    F      %     mph   deg.    mph    mb.     in.     
-------------------------------------------------------------------------
 112    8:00   0.53   47.0    54    1.5    38     3.7   866.5    0.00 
 112    8:10   0.57   49.8    46    0.8    43     2.7   866.3    0.00 
 112    8:20   0.59   50.7    37    1.5   246     4.2   866.2    0.00 
 112    8:30   0.63   51.1    40    2.2    80     4.3   866.2    0.00 
 112    8:40   0.66   50.6    41    2.6    31     4.3   866.1    0.00 
 112    8:50   0.67   51.0    41    2.2    64     5.6   866.1    0.00 
 112    9:00   0.75   52.1    40    2.9    86     6.6   866.0    0.00 
 112    9:10   0.77   51.8    41    3.5    47     6.1   866.1    0.00 
 112    9:20   0.76   52.7    38    1.6    32     4.1   866.2    0.00 
 112    9:30   0.80   54.4    38    1.8    72     4.2   866.1    0.00 
 112    9:40   0.81   55.7    35    2.1   190     4.6   866.0    0.00 
 112    9:50   0.88   55.1    36    2.6    41     7.3   866.0    0.00 
 112   10:00   0.87   55.4    35    3.9    69     9.1   865.8    0.00 
 112   10:10   0.87   55.6    35    3.6    97     6.6   865.7    0.00 
 112   10:20   0.73   56.8    34    3.6    91     9.9   865.7    0.00 
 112   10:30   0.79   56.5    36    3.7   342     5.3   865.6    0.00 
 112   10:40   0.93   58.0    31    2.6   132     7.9   865.4    0.00 
 112   10:50   0.73   59.7    30    6.8   163    17.8   865.2    0.00 
 112   11:00   0.92   58.7    31    6.6   104    13.7   865.1    0.00 
 112   11:10   0.88   59.7    30    6.9   153    12.9   865.1    0.00 
 112   11:20   1.11   60.3    30    6.6   129    11.5   864.8    0.00 
 112   11:30   0.65   59.9    30    6.8   133    12.9   864.7    0.00 
 112   11:40   1.11   61.3    29    8.3   161    16.1   864.5    0.00 
 112   11:50   0.61   61.4    29    6.4   157    13.4   864.4    0.00 
 112   12:00   0.95   63.2    29    7.3   157    15.5   864.3    0.00 
 112   12:10   0.83   62.0    29    5.0   143    10.8   864.1    0.00 
 112   12:20   0.97   63.5    28    6.5   171    11.0   864.0    0.00 
 112   12:30   0.89   64.0    28    5.5   169    12.1   863.9    0.00 
 112   12:40   0.80   64.8    27    7.3   193    12.2   863.8    0.00 
 112   12:50   0.95   64.7    27    7.8   174    13.7   863.8    0.00 
 112   13:00   0.81   65.3    27    8.6   170    14.3   863.7    0.00 
 112   13:10   0.91   66.1    26    9.0   173    16.1   863.6    0.00 
 112   13:20   0.85   65.5    28    7.7   136    12.1   863.4    0.00 
 112   13:30   0.90   66.4    26    5.4   157    14.0   863.4    0.00 
 112   13:40   0.71   66.3    26    8.2   155    14.8   863.3    0.00 
 112   13:50   0.69   66.6    27    7.9   171    13.7   863.1    0.00 
 112   14:00   0.58   66.3    27    7.9   142    11.9   863.0    0.00 
 112   14:10   0.40   66.0    27    6.4   155    13.8   862.9    0.00 
 112   14:20   0.37   66.2    27    8.8   155    15.4   862.8    0.00 
 112   14:30   0.34   66.2    26    9.5   159    15.2   862.6    0.00 
 112   14:40   0.33   66.1    26    7.3   164    11.0   862.5    0.00 
 112   14:50   0.30   66.3    27    7.9   155    12.0   862.4    0.00 
 112   15:00   0.26   66.4    27    6.5   166     9.6   862.3    0.00 
 112   15:10   0.24   66.6    26    7.9   163    11.7   862.1    0.00 
 112   15:20   0.23   67.0    25    6.9   172    10.1   862.0    0.00 
 112   15:30   0.22   67.2    22    9.2   195    18.9   861.9    0.00 
 112   15:40   0.20   67.4    19   11.1   225    16.9   861.8    0.00 
 112   15:50   0.19   67.1    19   11.9   234    16.0   861.8    0.00 
 112   16:00   0.16   66.9    20   12.0   235    15.9   861.8    0.00 
 112   16:10   0.16   66.7    20   10.7   230    14.2   861.8    0.00 
 112   16:20   0.14   66.5    20    8.5   224    11.8   861.8    0.00 
 112   16:30   0.12   66.3    22    7.3   223    11.7   861.8    0.00 
 112   16:40   0.12   66.0    22    5.8   234     8.1   861.7    0.00 
 112   16:50   0.11   65.7    24    5.3   246     8.1   861.7    0.00 
 112   17:00   0.08   65.3    24    5.6   236     8.0   861.6    0.00 
 112   17:10   0.05   64.6    25    4.5   248     6.9   861.5    0.00 
 112   17:20   0.05   63.8    27    3.5   245     4.7   861.2    0.00 
 112   17:30   0.07   62.9    29    4.1   219     6.9   861.2    0.00 
 112   17:40   0.05   63.0    27    4.8   222     6.4   861.1    0.00 
 112   17:50   0.04   62.8    27    5.0   201     5.8   861.0    0.00 
 112   18:00   0.03   63.0    26    5.5   195     7.3   860.8    0.00 
 112   18:10   0.02   62.2    28    5.0   202     5.6   860.7    0.00 
 112   18:20   0.01   61.3    29    5.1   212     6.1   860.7    0.00 
 112   18:30   0.01   61.4    28    5.9   204     7.2   860.6    0.00 
 112   18:40   0.00   60.4    31    5.5   198     6.6   860.6    0.00 
 112   18:50   0.00   59.0    35    6.5   221     8.2   860.7    0.00 
 112   19:00   0.00   60.0    32   10.5   240    17.6   860.7    0.00 
 112   19:10   0.00   62.3    28   14.2   257    20.5   860.7    0.00 
 112   19:20   0.00   62.8    28   14.4   262    21.1   860.7    0.00 
 112   19:30   0.00   62.8    29   13.6   270    22.3   860.6    0.00 
 112   19:40   0.00   62.0    30   13.0   276    18.2   860.6    0.00 
 112   19:50   0.00   62.0    30   14.4   272    23.2   860.6    0.00 
 112   20:00   0.00   62.1    30   15.0   274    20.8   860.8    0.00 
 112   20:10   0.00   62.1    29   16.2   274    24.5   860.8    0.00 
 112   20:20   0.00   61.1    31    9.6   278    14.4   860.8    0.00 
 112   20:30   0.00   61.3    30   11.7   275    20.2   860.9    0.00 
 112   20:40   0.00   61.2    30   12.5   279    18.9   861.0    0.00 
 112   20:50   0.00   61.1    29   14.7   271    21.3   861.1    0.00 
 112   21:00   0.00   60.9    28   17.5   279    27.1   860.9    0.00 
 112   21:10   0.00   60.4    30   15.2   282    22.8   860.7    0.00 
 112   21:20   0.00   59.8    30   12.9   279    18.7   861.0    0.00 
 112   21:30   0.00   60.2    28    6.6   236    12.7   861.2    0.00 
 112   21:40   0.00   58.5    33    9.0   180    12.9   861.3    0.00 
 112   21:50   0.00   56.6    37   11.3   154    13.7   861.3    0.00 
 112   22:00   0.00   57.3    34    7.6   158    11.9   861.3    0.00 
 112   22:10   0.00   57.5    33    5.4   148     9.1   861.2    0.00 
 112   22:20   0.00   57.2    33    4.8   143     9.9   861.2    0.00 
 112   22:30   0.00   56.5    35    6.3   138     8.8   861.0    0.00 
 112   22:40   0.00   55.3    38    5.7   161     7.2   861.2    0.00 
 112   22:50   0.00   54.7    40    6.9   172    11.8   861.4    0.00 
 112   23:00   0.00   55.4    38    8.2   162    10.4   861.2    0.00 
 112   23:10   0.00   55.7    38    7.2   161    11.5   861.2    0.00 
 112   23:20   0.00   54.1    40    6.3   160     8.3   861.0    0.00 
 112   23:30   0.00   52.5    43    5.1   120     6.7   860.7    0.00 
 112   23:40   0.00   51.6    44    3.8   134     9.6   860.7    0.00 
 112   23:50   0.00   51.8    43    5.4   166     8.6   860.9    0.00 
 113    0:00   0.00   51.7    43    5.0   199     8.7   861.1    0.00 
 113    0:10   0.00   52.0    43    3.9   196     7.7   861.0    0.00 
 113    0:20   0.00   49.2    48    7.4   162     9.3   861.0    0.00 
 113    0:30   0.00   50.3    46    6.1   166    11.0   860.9    0.00 
 113    0:40   0.00   51.2    45    5.7   172     7.7   860.8    0.00 
 113    0:50   0.00   52.0    44    5.4   173    10.3   860.8    0.00 
 113    1:00   0.00   50.6    47    5.1   182     7.5   860.7    0.00 
 113    1:10   0.00   48.8    50    4.7   184     7.9   860.6    0.00 
 113    1:20   0.00   46.7    54    3.7   204     6.3   860.6    0.00 
 113    1:30   0.00   49.6    48    6.4   245     9.3   860.5    0.00 
 113    1:40   0.00   51.4    45    8.1   237    14.1   860.5    0.00 
 113    1:50   0.00   52.3    42   10.3   244    15.1   860.3    0.00 
 113    2:00   0.00   52.0    44   11.2   251    15.4   860.1    0.00 
 113    2:10   0.00   51.8    44   11.3   240    17.2   860.1    0.00 
 113    2:20   0.00   51.4    46   11.2   241    16.4   860.1    0.00 
 113    2:30   0.00   50.7    46   10.7   232    15.3   860.1    0.00 
 113    2:40   0.00   50.2    49   12.7   234    17.9   860.0    0.00 
 113    2:50   0.00   49.8    48    7.7   232    13.4   860.0    0.00 
 113    3:00   0.00   49.7    44    5.4   221    10.2   860.0    0.00 
 113    3:10   0.00   48.3    50    1.6   163     5.6   860.1    0.00 
 113    3:20   0.00   45.9    61    2.9   174     8.3   860.2    0.00 
 113    3:30   0.00   44.4    65    6.6   179    11.9   860.3    0.00 
 113    3:40   0.00   44.5    64    7.8   179    10.7   860.3    0.00 
 113    3:50   0.00   44.9    62    7.8   184    11.4   860.3    0.00 
 113    4:00   0.00   44.2    62    4.0   197     7.1   860.5    0.00 
 113    4:10   0.00   42.1    66    4.7   187     8.8   860.5    0.00 
 113    4:20   0.00   43.7    64    8.4   199    11.2   860.5    0.00 
 113    4:30   0.00   44.9    63    9.3   201    11.5   860.6    0.00 
 113    4:40   0.00   45.1    62    7.9   201    11.0   860.7    0.00 
 113    4:50   0.00   45.5    62    9.2   204    12.5   860.8    0.00 
 113    5:00   0.00   45.8    61    6.6   188     9.4   860.8    0.00 
 113    5:10   0.00   46.4    59    2.8   208     7.8   860.8    0.00 
 113    5:20   0.01   46.6    58    1.6   191     4.5   860.8    0.00 
 113    5:30   0.02   45.6    60    1.2   175     4.2   861.0    0.00 
 113    5:40   0.03   44.1    65    5.8   150     8.4   861.1    0.00 
 113    5:50   0.05   43.6    67    3.7   253     6.6   861.3    0.00 
 113    6:00   0.06   46.2    56    2.8   183     6.2   861.3    0.00 
 113    6:10   0.06   50.2    44    4.4   176     9.5   861.3    0.00 
 113    6:20   0.07   47.7    55    7.2   163    10.8   861.3    0.00 
 113    6:30   0.10   46.9    59    7.5   147    10.7   861.3    0.00 
 113    6:40   0.12   47.3    58    6.3   154     9.8   861.3    0.00 
 113    6:50   0.14   48.1    55    6.0   154     9.1   861.3    0.00 
 113    7:00   0.17   48.9    51    5.5   163     9.8   861.3    0.00 
 113    7:10   0.21   50.2    46    5.5   196     9.6   861.3    0.00 
 113    7:20   0.22   50.8    47    6.2   172    13.1   861.3    0.00 
 113    7:30   0.21   50.5    49    8.7   166    12.8   861.2    0.00 
 113    7:40   0.23   50.4    49    9.5   162    14.0   861.2    0.00 
 113    7:50   0.26   52.1    38    6.8   215    10.4   861.2    0.00 

Return to Paradise Valley graphs page.


Western Regional Climate Center,wrcc@dri.edu